Time;durP1;ratioP1;P1;durP2;ratioP2;P2;SDS_P1;SDS_P2;PMS_P1;PMS_P2;Temp;Humidity;BMP_temperature;BMP_pressure;BME280_temperature;BME280_humidity;BME280_pressure;Samples;Min_cycle;Max_cycle;Signal;HPM_P1;HPM_P2
2023/01/12 00:01:41;;;;;;;;;63.75;50.75;;;;;11.44;58.56;99805.63;5113784;27;8921;-84
2023/01/12 00:04:12;;;;;;;;;58.50;48.50;;;;;11.49;60.38;99809.09;5110836;27;8849;-84
2023/01/12 00:06:42;;;;;;;;;63.00;50.00;;;;;11.49;59.75;99807.38;5095484;27;8838;-84
2023/01/12 00:09:11;;;;;;;;;58.50;48.25;;;;;11.53;59.59;99810.84;5112125;27;8869;-84
2023/01/12 00:11:40;;;;;;;;;60.00;49.25;;;;;11.57;59.98;99822.16;5084396;28;8867;-81
2023/01/12 00:14:10;;;;;;;;;57.50;46.00;;;;;11.49;59.90;99823.03;5071118;28;8949;-83
2023/01/12 00:16:40;;;;;;;;;66.50;52.50;;;;;11.15;58.06;99819.50;5055444;28;8856;-83
2023/01/12 00:19:11;;;;;;;;;67.50;55.50;;;;;11.30;60.01;99834.31;5050469;28;9010;-80
2023/01/12 00:21:55;;;;;;;;;68.75;53.25;;;;;11.38;60.06;99831.72;5095111;28;8849;-85
2023/01/12 00:24:26;;;;;;;;;66.50;54.50;;;;;11.48;59.81;99836.09;5110035;28;8853;-82
2023/01/12 00:26:56;;;;;;;;;65.75;53.50;;;;;11.51;59.62;99834.34;5082837;28;8950;-83
2023/01/12 00:29:26;;;;;;;;;71.00;57.50;;;;;11.61;60.14;99837.84;5070884;28;8875;-82
2023/01/12 00:31:58;;;;;;;;;72.25;58.50;;;;;11.66;60.29;99838.72;5039527;28;8882;-83
2023/01/12 00:34:28;;;;;;;;;70.25;57.50;;;;;11.69;59.74;99835.22;5085517;28;8861;-85
2023/01/12 00:36:59;;;;;;;;;72.75;58.50;;;;;11.75;60.50;99847.41;5078815;28;9625;-83
2023/01/12 00:39:29;;;;;;;;;68.00;56.00;;;;;11.76;60.46;99851.75;5058724;28;8864;-84
2023/01/12 00:47:33;;;;;;;;;67.25;56.00;;;;;11.82;60.08;99849.16;5092939;28;8871;-83
2023/01/12 00:50:02;;;;;;;;;64.50;53.00;;;;;11.80;59.37;99835.22;5102396;28;8905;-82
2023/01/12 00:52:30;;;;;;;;;70.25;52.25;;;;;11.80;59.93;99840.44;5106244;28;8860;-81
2023/01/12 00:55:00;;;;;;;;;62.75;51.75;;;;;11.78;59.44;99835.22;5074648;28;8874;-82
2023/01/12 00:57:28;;;;;;;;;65.75;50.75;;;;;11.82;59.21;99833.47;5107325;28;8944;-85
2023/01/12 00:59:58;;;;;;;;;64.00;52.25;;;;;11.75;59.78;99842.19;5054642;28;8827;-83
2023/01/12 01:02:28;;;;;;;;;60.75;49.75;;;;;11.70;59.56;99840.44;5090477;28;8855;-85
2023/01/12 01:04:59;;;;;;;;;62.00;51.00;;;;;11.70;60.28;99835.22;5055337;28;8918;-85
2023/01/12 01:07:27;;;;;;;;;63.50;50.50;;;;;11.50;58.09;99837.81;5095464;28;8975;-85
2023/01/12 01:09:56;;;;;;;;;68.00;52.50;;;;;11.46;59.04;99846.53;5090003;28;8875;-85
2023/01/12 01:12:25;;;;;;;;;63.25;54.25;;;;;11.49;59.48;99859.59;5057567;28;8874;-86
2023/01/12 01:14:55;;;;;;;;;70.50;57.50;;;;;11.55;59.48;99858.75;5079019;28;8891;-84
2023/01/12 01:17:24;;;;;;;;;69.50;57.25;;;;;11.51;59.28;99860.47;5108780;28;8860;-84
2023/01/12 01:19:53;;;;;;;;;71.25;57.25;;;;;11.54;59.55;99864.81;5084324;28;8840;-83
2023/01/12 01:22:23;;;;;;;;;71.50;57.00;;;;;11.65;60.37;99864.84;5090406;28;8847;-81
2023/01/12 01:24:52;;;;;;;;;64.50;52.75;;;;;11.46;57.45;99867.44;5089100;28;8862;-82
2023/01/12 01:27:20;;;;;;;;;67.50;53.25;;;;;11.38;57.95;99869.16;5090016;28;8851;-83
2023/01/12 01:29:49;;;;;;;;;70.25;57.25;;;;;11.41;60.02;99876.97;5106532;28;8810;-81
2023/01/12 01:32:18;;;;;;;;;65.00;55.50;;;;;11.43;59.98;99872.63;5029556;28;8843;-82
2023/01/12 01:34:47;;;;;;;;;64.75;52.75;;;;;11.56;60.56;99876.13;5029444;28;8863;-81
2023/01/12 01:37:17;;;;;;;;;72.25;57.25;;;;;11.52;59.56;99877.00;5029769;28;8854;-83
2023/01/12 01:39:47;;;;;;;;;64.00;51.50;;;;;11.56;60.49;99864.81;5037042;28;8844;-84
2023/01/12 01:42:26;;;;;;;;;64.50;54.25;;;;;11.52;59.78;99869.16;5068401;28;8874;-82
2023/01/12 01:44:59;;;;;;;;;68.50;51.25;;;;;11.57;59.47;99875.28;5085968;28;8830;-81
2023/01/12 01:47:34;;;;;;;;;60.75;49.25;;;;;11.66;59.08;99869.16;5074906;28;9095;-81
2023/01/12 01:50:12;;;;;;;;;58.50;47.75;;;;;11.69;58.93;99869.19;5025020;28;8900;-83
2023/01/12 01:52:45;;;;;;;;;58.75;49.25;;;;;11.61;58.62;99866.56;5089529;28;8850;-82
2023/01/12 01:55:20;;;;;;;;;60.25;48.75;;;;;11.55;59.04;99868.28;5079808;28;8898;-79
2023/01/12 01:57:52;;;;;;;;;65.50;51.50;;;;;11.60;59.12;99856.97;5050111;28;8927;-81
2023/01/12 02:00:22;;;;;;;;;58.75;50.00;;;;;11.68;60.31;99865.72;5033411;28;9621;-84
2023/01/12 02:02:52;;;;;;;;;59.00;49.00;;;;;11.68;57.66;99862.19;5044428;28;8869;-80
2023/01/12 02:05:24;;;;;;;;;65.75;51.25;;;;;11.71;58.41;99862.22;5107230;28;8903;-82
2023/01/12 02:07:55;;;;;;;;;52.75;44.25;;;;;11.75;59.43;99861.34;5090957;28;8857;-82
2023/01/12 02:10:25;;;;;;;;;60.75;50.75;;;;;11.87;59.35;99865.69;5091415;27;8825;-83
2023/01/12 02:18:56;;;;;;;;;57.25;48.00;;;;;12.14;60.86;99859.59;4951122;28;8879;-84
2023/01/12 02:21:55;;;;;;;;;58.50;46.50;;;;;12.18;59.09;99852.63;4951026;28;8863;-84
2023/01/12 02:24:56;;;;;;;;;61.50;48.50;;;;;12.26;58.96;99848.22;4909020;29;8887;-84
2023/01/12 02:27:56;;;;;;;;;52.50;44.75;;;;;12.29;59.82;99851.72;4893942;29;8871;-83
2023/01/12 02:31:01;;;;;;;;;49.50;41.75;;;;;12.25;60.14;99854.34;4922107;29;9046;-84
2023/01/12 02:33:43;;;;;;;;;59.75;49.75;;;;;12.03;59.36;99858.75;4892125;29;8875;-83
2023/01/12 02:36:17;;;;;;;;;60.50;50.75;;;;;12.04;59.16;99857.84;4891764;29;8864;-83
2023/01/12 02:38:51;;;;;;;;;62.25;52.50;;;;;11.95;57.77;99853.53;4891307;29;8855;-83
2023/01/12 02:44:30;;;;;;;;;62.75;51.25;;;;;12.06;58.99;99853.50;4902194;29;8958;-83
2023/01/12 02:47:02;;;;;;;;;67.50;49.75;;;;;12.03;58.73;99843.06;4932056;28;8850;-84
2023/01/12 02:49:40;;;;;;;;;58.50;47.00;;;;;12.12;58.77;99853.50;4947121;28;8862;-84
2023/01/12 02:52:14;;;;;;;;;64.75;52.25;;;;;12.09;58.70;99858.72;4947691;29;8847;-84
2023/01/12 02:54:49;;;;;;;;;60.50;50.50;;;;;12.14;59.11;99846.53;4915371;29;8897;-83
2023/01/12 02:57:23;;;;;;;;;66.25;52.25;;;;;12.11;58.11;99843.03;4941607;28;8895;-82
2023/01/12 02:59:54;;;;;;;;;62.75;51.50;;;;;12.05;58.17;99833.47;4991437;28;8908;-84
2023/01/12 03:02:26;;;;;;;;;62.50;51.50;;;;;12.06;58.52;99837.81;4988300;28;8863;-88
2023/01/12 03:04:57;;;;;;;;;65.25;52.50;;;;;12.02;57.96;99836.06;5023402;28;8877;-80
2023/01/12 03:07:42;;;;;;;;;64.00;51.25;;;;;12.18;59.33;99839.53;5028514;28;9026;-80
2023/01/12 03:10:40;;;;;;;;;68.00;55.75;;;;;12.20;58.84;99843.88;5028446;28;8892;-81
2023/01/12 03:13:12;;;;;;;;;72.00;56.00;;;;;12.06;58.53;99838.69;4985805;28;8866;-85
2023/01/12 03:15:45;;;;;;;;;72.00;56.75;;;;;12.09;58.78;99835.19;4985563;28;10132;-83
2023/01/12 03:18:18;;;;;;;;;75.50;57.50;;;;;12.03;58.23;99828.25;5000803;28;8864;-84
2023/01/12 03:20:53;;;;;;;;;75.00;58.50;;;;;12.09;58.17;99825.59;5008836;28;9092;-84
2023/01/12 03:23:29;;;;;;;;;71.25;57.00;;;;;11.98;58.65;99822.13;5005004;28;8870;-84
2023/01/12 03:26:01;;;;;;;;;66.50;55.25;;;;;11.92;58.89;99829.13;5015430;28;8876;-84
2023/01/12 03:28:34;;;;;;;;;63.00;51.25;;;;;11.92;59.42;99822.16;5024653;28;8880;-84
2023/01/12 03:31:09;;;;;;;;;64.50;51.00;;;;;11.90;59.40;99816.06;5009377;28;8854;-82
2023/01/12 03:33:41;;;;;;;;;60.75;49.00;;;;;11.80;58.42;99817.78;5034564;28;8836;-83
2023/01/12 03:36:34;;;;;;;;;58.50;48.75;;;;;11.97;59.72;99816.94;5018688;28;8870;-85
2023/01/12 03:39:13;;;;;;;;;29.75;25.75;;;;;11.85;58.74;99815.16;5049412;28;8869;-85
2023/01/12 03:41:54;;;;;;;;;57.00;41.75;;;;;11.86;57.78;99814.31;5031991;28;8877;-81
2023/01/12 03:44:32;;;;;;;;;53.75;44.50;;;;;11.90;58.72;99826.53;5014508;28;8971;-84
2023/01/12 03:47:07;;;;;;;;;56.00;45.25;;;;;11.75;55.92;99826.50;5032313;28;8881;-82
2023/01/12 03:49:41;;;;;;;;;53.50;45.50;;;;;11.84;57.42;99824.75;5044169;28;8844;-84
2023/01/12 03:52:13;;;;;;;;;50.00;42.75;;;;;11.87;58.26;99823.88;5073258;28;9026;-80
2023/01/12 03:54:44;;;;;;;;;44.75;41.25;;;;;11.89;57.12;99822.16;5092731;28;8849;-82
2023/01/12 03:57:14;;;;;;;;;46.25;42.00;;;;;11.89;58.08;99825.66;5103578;28;8843;-82
2023/01/12 03:59:43;;;;;;;;;40.00;38.50;;;;;11.96;57.86;99823.03;5092762;28;8948;-82
2023/01/12 04:02:13;;;;;;;;;43.00;38.75;;;;;11.91;57.12;99817.81;5109469;28;8874;-83
2023/01/12 04:04:42;;;;;;;;;38.20;36.60;;;;;11.92;57.19;99814.31;5074074;28;8965;-82
2023/01/12 04:07:13;;;;;;;;;33.20;30.80;;;;;11.99;56.83;99817.81;5093544;28;8844;-81
2023/01/12 04:09:42;;;;;;;;;34.00;31.20;;;;;12.02;56.41;99808.22;5093198;28;8850;-83
2023/01/12 04:12:11;;;;;;;;;42.00;34.40;;;;;12.06;58.54;99814.28;5091673;28;8869;-81
2023/01/12 04:14:42;;;;;;;;;41.25;36.75;;;;;12.01;57.12;99806.47;5074909;28;8919;-81
2023/01/12 04:17:16;;;;;;;;;44.25;39.75;;;;;12.02;57.61;99804.72;5071862;28;8857;-82
2023/01/12 04:19:45;;;;;;;;;33.25;31.75;;;;;11.96;57.58;99804.72;5054364;28;8866;-81
2023/01/12 04:25:02;;;;;;;;;38.75;37.25;;;;;11.97;57.80;99806.50;5068170;28;8863;-83
2023/01/12 04:27:31;;;;;;;;;43.00;40.50;;;;;11.96;57.77;99800.38;5067938;28;8868;-82
2023/01/12 04:30:00;;;;;;;;;81.00;63.75;;;;;11.98;56.97;99806.47;5056554;28;8863;-82
2023/01/12 04:32:29;;;;;;;;;30.00;28.00;;;;;11.97;57.09;99812.56;5034388;28;8887;-80
2023/01/12 04:34:58;;;;;;;;;54.25;46.00;;;;;12.00;57.55;99816.91;5034237;28;8880;-82
2023/01/12 04:37:28;;;;;;;;;44.50;41.25;;;;;12.03;57.11;99823.00;5034432;28;8860;-81
2023/01/12 04:39:57;;;;;;;;;42.50;38.25;;;;;12.08;58.32;99825.63;5050315;28;8898;-82
2023/01/12 04:45:13;;;;;;;;;49.75;42.00;;;;;12.05;58.34;99825.63;5054097;28;8874;-82
2023/01/12 04:47:42;;;;;;;;;57.00;43.75;;;;;12.04;58.39;99826.47;5082646;28;8876;-81
2023/01/12 04:50:11;;;;;;;;;46.25;36.75;;;;;11.79;56.99;99833.47;5100352;28;8959;-83
2023/01/12 04:52:41;;;;;;;;;48.00;40.50;;;;;11.37;56.43;99840.44;5086711;28;8924;-84
2023/01/12 04:55:11;;;;;;;;;44.75;41.25;;;;;11.38;57.21;99847.38;5022601;28;8863;-83
2023/01/12 04:57:40;;;;;;;;;47.50;43.25;;;;;11.36;57.53;99847.41;5053670;28;8909;-80
2023/01/12 05:00:10;;;;;;;;;50.75;42.00;;;;;11.40;57.55;99856.97;5055407;28;8997;-80
2023/01/12 05:02:39;;;;;;;;;50.25;44.25;;;;;11.41;58.50;99848.25;5088463;28;8850;-82
2023/01/12 05:05:08;;;;;;;;;54.25;45.25;;;;;11.37;58.36;99859.56;5037193;28;8853;-82
2023/01/12 05:10:21;;;;;;;;;63.50;51.50;;;;;11.26;57.88;99861.31;5088207;28;8858;-82
2023/01/12 05:10:26;;;;;;;;;69.00;51.50;;;;;11.30;58.76;99861.31;5090256;28;8854;-80
2023/01/12 05:12:56;;;;;;;;;60.50;50.00;;;;;11.29;59.10;99861.31;5088635;28;8865;-81
2023/01/12 05:15:24;;;;;;;;;54.50;45.75;;;;;11.38;58.48;99860.44;5089515;28;8850;-81
2023/01/12 05:17:54;;;;;;;;;53.50;45.25;;;;;11.42;58.56;99859.59;5089994;28;8845;-84
2023/01/12 05:20:23;;;;;;;;;72.75;57.25;;;;;11.38;58.76;99863.06;5104764;28;8887;-84
2023/01/12 05:22:52;;;;;;;;;74.00;56.00;;;;;11.45;58.55;99860.44;5071693;28;8861;-85
2023/01/12 05:25:21;;;;;;;;;65.00;53.75;;;;;11.11;56.15;99865.63;5071867;28;8834;-85
2023/01/12 05:27:56;;;;;;;;;54.75;45.00;;;;;9.86;59.25;99868.44;5088234;28;8873;-85
2023/01/12 05:30:26;;;;;;;;;52.75;43.75;;;;;9.40;60.91;99881.94;5102771;28;8837;-82
2023/01/12 05:32:59;;;;;;;;;51.75;42.75;;;;;9.56;60.26;99877.75;5108981;28;8840;-84
2023/01/12 05:35:28;;;;;;;;;45.00;41.75;;;;;9.32;61.13;99886.22;5094561;28;8861;-84
2023/01/12 05:37:57;;;;;;;;;56.75;46.75;;;;;9.19;61.83;99885.22;5091223;28;8864;-83
2023/01/12 05:40:26;;;;;;;;;51.50;43.50;;;;;9.15;62.52;99868.69;5091006;28;8849;-82
2023/01/12 05:45:43;;;;;;;;;59.50;48.25;;;;;10.14;61.99;99882.53;5106852;27;8988;-81
2023/01/12 05:48:12;;;;;;;;;51.00;43.25;;;;;10.39;61.95;99878.38;5121157;27;8853;-83
2023/01/12 05:50:40;;;;;;;;;49.25;42.75;;;;;10.67;61.24;99870.69;5089084;27;8887;-83
2023/01/12 05:53:10;;;;;;;;;62.75;52.50;;;;;10.86;60.66;99869.91;5092226;28;8849;-81
2023/01/12 05:55:39;;;;;;;;;61.75;48.25;;;;;11.01;60.62;99878.66;5124991;27;9579;-82
2023/01/12 05:58:09;;;;;;;;;59.25;47.00;;;;;11.21;60.16;99865.63;5126200;27;8878;-83
2023/01/12 06:00:38;;;;;;;;;56.50;47.25;;;;;11.24;61.02;99871.72;5069985;27;8991;-82
2023/01/12 06:03:07;;;;;;;;;51.00;43.25;;;;;11.36;60.46;99870.91;5126076;27;8858;-82
2023/01/12 06:05:36;;;;;;;;;62.75;50.25;;;;;11.45;59.96;99864.81;5107610;27;8848;-82
2023/01/12 06:08:05;;;;;;;;;63.50;50.25;;;;;11.53;60.29;99865.69;5122300;27;8856;-82
2023/01/12 06:10:35;;;;;;;;;57.75;46.50;;;;;11.53;59.21;99860.47;5126031;27;8895;-82
2023/01/12 06:15:52;;;;;;;;;53.00;45.25;;;;;11.69;58.93;99871.78;5103485;28;8845;-82
2023/01/12 06:18:22;;;;;;;;;60.50;50.00;;;;;11.74;59.59;99864.84;5119322;27;8826;-84
2023/01/12 06:20:50;;;;;;;;;60.75;49.50;;;;;11.73;58.29;99857.84;5101144;28;8861;-82
2023/01/12 06:23:20;;;;;;;;;66.25;50.75;;;;;11.04;57.78;99871.69;5072433;28;9674;-82
2023/01/12 06:26:06;;;;;;;;;65.75;53.00;;;;;10.02;60.38;99885.03;5103919;27;8864;-80
2023/01/12 06:28:39;;;;;;;;;63.50;51.75;;;;;9.79;61.76;99887.47;5108894;27;9451;-82
2023/01/12 06:31:11;;;;;;;;;59.25;50.50;;;;;9.70;61.74;99885.69;5123566;27;8859;-80
2023/01/12 06:33:42;;;;;;;;;64.00;51.25;;;;;9.90;61.19;99889.31;5118811;27;9628;-80
2023/01/12 06:36:11;;;;;;;;;61.50;50.50;;;;;10.09;60.63;99884.22;5132017;27;8847;-81
2023/01/12 06:38:42;;;;;;;;;66.75;51.00;;;;;9.69;61.22;99887.41;5126794;27;9576;-81
2023/01/12 06:42:27;;;;;;;;;53.75;47.75;;;;;10.22;60.84;99895.63;5110522;28;8857;-82
2023/01/12 06:44:02;;;;;;;;;59.25;51.00;;;;;10.57;61.10;99901.09;5122454;28;8833;-82
2023/01/12 06:46:32;;;;;;;;;70.25;56.00;;;;;10.59;59.90;99896.75;5117667;27;8850;-82
2023/01/12 06:49:01;;;;;;;;;68.25;55.25;;;;;10.90;60.47;99900.34;5113948;27;8873;-81
2023/01/12 06:51:30;;;;;;;;;67.75;54.50;;;;;11.11;60.35;99903.91;5126000;27;8920;-81
2023/01/12 06:54:00;;;;;;;;;67.25;52.50;;;;;11.29;61.11;99905.69;5109825;27;8854;-81
2023/01/12 06:56:28;;;;;;;;;63.75;50.25;;;;;11.45;60.88;99907.44;5072641;28;9583;-81
2023/01/12 06:58:57;;;;;;;;;73.00;54.50;;;;;11.52;59.95;99900.50;5107557;28;8837;-80
2023/01/12 07:01:26;;;;;;;;;71.50;56.75;;;;;11.62;59.62;99912.69;5089668;28;8848;-81
2023/01/12 07:03:57;;;;;;;;;66.50;53.75;;;;;11.72;59.12;99916.22;5121763;27;8854;-80
2023/01/12 07:06:26;;;;;;;;;67.75;55.75;;;;;11.78;58.53;99918.81;5084079;27;8961;-87
2023/01/12 07:08:55;;;;;;;;;65.00;50.75;;;;;11.84;59.09;99918.81;5122573;28;8861;-82
2023/01/12 07:11:24;;;;;;;;;66.75;54.50;;;;;11.86;59.25;99918.81;5136624;27;8858;-82
2023/01/12 07:13:55;;;;;;;;;61.75;51.50;;;;;11.67;56.71;99923.16;5146270;27;8861;-82
2023/01/12 07:16:24;;;;;;;;;63.50;51.25;;;;;11.56;57.01;99923.16;5139304;27;9623;-80
2023/01/12 07:18:53;;;;;;;;;58.75;49.00;;;;;11.60;58.05;99926.63;5104244;28;8865;-80
2023/01/12 07:21:23;;;;;;;;;63.25;52.75;;;;;10.28;59.49;99940.84;5116707;28;8856;-82
2023/01/12 07:23:52;;;;;;;;;49.00;42.25;;;;;9.38;62.54;99950.47;5088221;28;9086;-82
2023/01/12 07:26:21;;;;;;;;;61.00;49.75;;;;;8.81;63.99;99950.66;5098441;28;8932;-80
2023/01/12 07:28:50;;;;;;;;;58.00;46.75;;;;;8.19;66.98;99954.94;5073783;28;8840;-82
2023/01/12 07:31:19;;;;;;;;;56.50;48.25;;;;;8.15;67.37;99952.28;5072510;28;8852;-80
2023/01/12 07:33:50;;;;;;;;;68.50;56.25;;;;;8.06;67.71;99959.91;5099014;28;8863;-81
2023/01/12 07:36:20;;;;;;;;;62.00;52.50;;;;;7.96;68.62;99966.69;5086533;28;8852;-81
2023/01/12 07:38:50;;;;;;;;;59.50;50.00;;;;;7.97;69.38;99966.69;5049582;28;8979;-82
2023/01/12 07:44:13;;;;;;;;;63.50;52.75;;;;;7.87;68.63;99969.13;5019953;28;8883;-84
2023/01/12 07:46:42;;;;;;;;;59.00;49.75;;;;;7.89;68.05;99970.88;5015580;28;8907;-81
2023/01/12 07:49:12;;;;;;;;;64.50;54.25;;;;;7.82;67.77;99979.41;5023608;28;9135;-80
2023/01/12 07:51:41;;;;;;;;;66.50;55.25;;;;;7.95;67.93;99975.31;5025076;28;8997;-81
2023/01/12 07:54:12;;;;;;;;;63.50;49.75;;;;;7.75;67.70;99982.75;5027588;28;8890;-80
2023/01/12 07:56:42;;;;;;;;;66.75;53.50;;;;;7.71;67.81;99987.03;5048645;28;8843;-82
2023/01/12 07:59:12;;;;;;;;;66.75;54.25;;;;;8.03;68.04;99980.63;5030746;28;9064;-80
2023/01/12 08:01:41;;;;;;;;;68.50;56.50;;;;;7.94;68.05;99979.63;5021157;28;8887;-77
2023/01/12 08:04:10;;;;;;;;;72.50;59.00;;;;;7.67;69.50;99987.78;4975199;28;10042;-81
2023/01/12 08:06:38;;;;;;;;;75.00;59.75;;;;;7.72;69.30;99988.75;4988250;28;8912;-80
2023/01/12 08:09:07;;;;;;;;;84.00;65.50;;;;;7.47;70.09;99995.22;4979299;28;8861;-81
2023/01/12 08:11:38;;;;;;;;;86.00;66.33;;;;;7.81;69.56;99996.72;5014745;28;8939;-80
2023/01/12 08:14:08;;;;;;;;;78.50;63.00;;;;;7.61;69.47;100008.47;5031327;28;8975;-79
2023/01/12 08:16:40;;;;;;;;;79.75;64.50;;;;;7.31;70.67;100012.19;5014610;28;8949;-80
2023/01/12 08:19:16;;;;;;;;;80.25;62.00;;;;;7.20;70.80;100006.81;5044377;28;8940;-79
2023/01/12 08:21:49;;;;;;;;;84.25;63.25;;;;;7.61;69.70;100008.47;5054559;28;8961;-78
2023/01/12 08:24:24;;;;;;;;;81.25;64.75;;;;;7.98;68.15;100007.41;5064499;28;9107;-80
2023/01/12 08:26:58;;;;;;;;;83.50;65.25;;;;;8.41;67.49;100015.00;5051308;28;8893;-79
2023/01/12 08:29:32;;;;;;;;;73.75;57.25;;;;;8.97;65.90;99996.81;5046725;28;8877;-81
2023/01/12 08:32:03;;;;;;;;;78.50;62.75;;;;;9.35;64.42;100004.22;5042576;28;8875;-86
2023/01/12 08:34:34;;;;;;;;;76.75;62.50;;;;;9.78;63.89;100009.03;5094389;27;8845;-80
2023/01/12 08:37:08;;;;;;;;;74.00;60.00;;;;;9.76;62.52;100006.41;5111780;27;8826;-79
2023/01/12 08:39:38;;;;;;;;;71.75;59.25;;;;;10.20;62.74;100009.41;5109214;28;8853;-80
2023/01/12 08:42:08;;;;;;;;;83.00;63.50;;;;;10.47;62.47;100001.84;5125090;27;8857;-83
2023/01/12 08:44:37;;;;;;;;;81.50;62.25;;;;;10.44;60.21;100006.16;5126256;27;8841;-81
2023/01/12 08:47:15;;;;;;;;;70.75;56.00;;;;;10.19;57.79;100005.94;5125960;27;8829;-82
2023/01/12 08:49:45;;;;;;;;;67.50;56.50;;;;;10.40;58.67;100001.78;5108698;28;8860;-80
2023/01/12 08:52:15;;;;;;;;;77.00;62.00;;;;;10.70;59.55;100007.22;5110082;27;8865;-80
2023/01/12 08:54:45;;;;;;;;;72.50;55.00;;;;;11.01;59.19;99996.94;5097162;28;8952;-80
2023/01/12 08:57:17;;;;;;;;;73.50;60.25;;;;;11.25;58.25;99993.56;5117048;27;8853;-80
2023/01/12 08:59:47;;;;;;;;;69.75;57.00;;;;;11.44;58.30;99989.28;5069090;28;8849;-82
2023/01/12 09:02:16;;;;;;;;;67.50;54.25;;;;;11.69;58.68;99982.38;5065858;28;8883;-80
2023/01/12 09:04:45;;;;;;;;;70.75;55.75;;;;;11.70;56.44;99980.63;5016462;28;8868;-78
2023/01/12 09:07:15;;;;;;;;;71.25;56.25;;;;;11.95;58.05;99978.97;5066454;28;8865;-81
2023/01/12 09:09:44;;;;;;;;;73.75;57.75;;;;;12.17;58.51;99981.59;5032793;28;8841;-82
2023/01/12 09:12:15;;;;;;;;;73.50;58.50;;;;;12.31;57.36;99982.47;5066357;28;9537;-80
2023/01/12 09:14:44;;;;;;;;;69.25;58.25;;;;;12.47;56.95;99981.56;5049403;28;8854;-80
2023/01/12 09:17:13;;;;;;;;;78.25;62.25;;;;;12.61;57.32;99970.22;5049480;28;9058;-82
2023/01/12 09:19:43;;;;;;;;;73.50;58.75;;;;;12.76;56.71;99970.19;5049677;28;10095;-82
2023/01/12 09:22:12;;;;;;;;;64.75;52.25;;;;;12.84;55.89;99962.31;5049873;28;8865;-81
2023/01/12 09:24:41;;;;;;;;;66.75;54.00;;;;;12.94;55.51;99958.78;5049939;28;8833;-81
2023/01/12 09:27:10;;;;;;;;;69.75;55.25;;;;;12.97;56.18;99957.91;5066391;28;9616;-80
2023/01/12 09:29:41;;;;;;;;;64.25;51.50;;;;;13.07;55.39;99960.47;5049308;28;8884;-80
2023/01/12 09:32:09;;;;;;;;;63.75;52.75;;;;;13.11;54.63;99958.72;5126472;27;8874;-79
2023/01/12 09:34:39;;;;;;;;;67.50;54.50;;;;;13.15;54.26;99963.06;5108178;28;8883;-80
2023/01/12 09:37:07;;;;;;;;;69.50;55.25;;;;;13.25;54.88;99958.63;5108863;28;8829;-81
2023/01/12 09:39:36;;;;;;;;;69.00;56.75;;;;;13.34;53.87;99948.16;5110292;28;8926;-79
2023/01/12 09:47:54;;;;;;;;;71.50;54.50;;;;;13.47;54.13;99935.00;5113925;27;8846;-80
2023/01/12 09:50:51;;;;;;;;;71.50;58.00;;;;;13.60;53.98;99937.53;5090015;28;8870;-80
2023/01/12 09:53:25;;;;;;;;;70.00;57.75;;;;;13.53;53.53;99932.34;5074326;28;8948;-84
2023/01/12 09:56:03;;;;;;;;;78.00;61.25;;;;;13.61;53.42;99930.53;5092871;28;8843;-81
2023/01/12 09:58:54;;;;;;;;;78.00;60.50;;;;;13.67;54.03;99925.25;5088950;28;8844;-79
2023/01/12 10:01:25;;;;;;;;;76.25;61.75;;;;;13.59;53.29;99927.03;5085729;28;9564;-82
2023/01/12 10:04:01;;;;;;;;;79.33;64.33;;;;;13.59;53.73;99925.31;5095476;28;8862;-80
2023/01/12 10:06:31;;;;;;;;;80.67;64.67;;;;;13.66;53.58;99923.50;5092182;28;8929;-80
2023/01/12 10:09:01;;;;;;;;;78.25;61.50;;;;;13.67;52.70;99932.22;5088366;28;9097;-69
2023/01/12 10:11:40;;;;;;;;;75.25;58.00;;;;;13.78;52.65;99922.53;5108709;28;8921;-72
2023/01/12 10:14:31;;;;;;;;;78.50;62.25;;;;;13.88;52.29;99926.00;5108271;28;9632;-79
2023/01/12 10:17:16;;;;;;;;;77.25;61.50;;;;;13.91;52.59;99924.19;5072641;28;8848;-75
2023/01/12 10:19:53;;;;;;;;;72.75;59.50;;;;;13.89;52.51;99923.31;5108214;28;8861;-77
2023/01/12 10:22:37;;;;;;;;;80.00;63.00;;;;;13.90;53.20;99919.84;5055840;28;8876;-78
2023/01/12 10:25:16;;;;;;;;;85.67;64.67;;;;;14.06;53.32;99930.19;5117401;27;8999;-79
2023/01/12 10:27:47;;;;;;;;;86.33;71.67;;;;;13.99;52.15;99927.63;5127237;27;9258;-76
2023/01/12 10:30:18;;;;;;;;;83.33;68.67;;;;;13.90;51.54;99927.72;5108245;28;9400;-76
2023/01/12 10:32:48;;;;;;;;;86.75;68.75;;;;;13.93;52.74;99932.03;5085894;28;9307;-77
2023/01/12 10:35:19;;;;;;;;;93.25;80.00;;;;;13.81;52.00;99933.88;5087266;28;10327;-77
2023/01/12 10:37:51;;;;;;;;;88.67;72.33;;;;;13.80;52.42;99947.88;5086314;28;9912;-76
2023/01/12 10:40:27;;;;;;;;;88.67;72.00;;;;;13.93;52.51;99940.81;5105998;28;9483;-77
2023/01/12 10:43:22;;;;;;;;;88.50;73.50;;;;;14.12;52.22;99936.28;5109105;28;9383;-76
2023/01/12 10:46:09;;;;;;;;;89.50;74.25;;;;;14.03;50.28;99931.97;5093392;28;9647;-77
2023/01/12 10:48:42;;;;;;;;;86.33;69.00;;;;;13.43;50.73;99926.28;5101498;28;9552;-77
2023/01/12 10:51:21;;;;;;;;;82.00;65.00;;;;;13.82;51.59;99924.28;5109664;28;9247;-77
2023/01/12 10:53:54;;;;;;;;;75.50;59.25;;;;;13.47;52.15;99921.91;5110422;28;9314;-76
2023/01/12 10:56:28;;;;;;;;;78.75;61.25;;;;;13.67;51.78;99921.75;5098988;28;8851;-74
2023/01/12 10:59:01;;;;;;;;;75.00;60.00;;;;;12.00;52.70;99922.34;5113871;28;8857;-76
2023/01/12 11:01:44;;;;;;;;;75.50;60.25;;;;;12.76;52.60;99924.81;5111993;28;8963;-76
2023/01/12 11:04:19;;;;;;;;;74.00;59.50;;;;;12.12;52.33;99924.09;5112337;28;8869;-74
2023/01/12 11:06:57;;;;;;;;;72.00;57.25;;;;;12.79;54.31;99911.72;5093668;28;8845;-76
2023/01/12 11:09:28;;;;;;;;;69.50;55.25;;;;;12.96;53.59;99911.66;5110285;28;8876;-76
2023/01/12 11:11:58;;;;;;;;;59.00;49.50;;;;;13.17;53.59;99906.31;5075357;28;8861;-77
2023/01/12 11:14:31;;;;;;;;;66.50;54.00;;;;;12.59;53.11;99903.94;5108663;28;8845;-78
2023/01/12 11:17:20;;;;;;;;;72.50;58.00;;;;;12.50;52.02;99902.22;5075431;28;9660;-78
2023/01/12 11:19:53;;;;;;;;;77.25;61.75;;;;;12.72;53.71;99908.28;5107921;28;8860;-77
2023/01/12 11:22:27;;;;;;;;;71.50;57.75;;;;;12.90;52.09;99911.69;5082031;28;8848;-77
2023/01/12 11:25:01;;;;;;;;;70.75;57.00;;;;;12.95;51.42;99905.56;5055074;28;8893;-75
2023/01/12 11:27:35;;;;;;;;;64.25;53.00;;;;;12.92;51.94;99915.16;5058893;28;8861;-79
2023/01/12 11:30:14;;;;;;;;;67.00;54.00;;;;;12.86;52.39;99911.69;5078463;28;8842;-78
2023/01/12 11:32:49;;;;;;;;;66.75;53.50;;;;;13.18;51.84;99905.44;5108181;28;8855;-77
2023/01/12 11:35:28;;;;;;;;;79.75;62.50;;;;;13.01;50.18;99908.13;5072408;28;8853;-79
2023/01/12 11:38:01;;;;;;;;;73.75;59.25;;;;;12.37;53.23;99904.00;5089161;28;8925;-79
2023/01/12 11:40:32;;;;;;;;;75.00;60.00;;;;;12.56;53.34;99896.09;5057102;28;8837;-77
2023/01/12 11:46:12;;;;;;;;;71.75;56.50;;;;;12.41;53.54;99894.41;5088461;28;8822;-80
2023/01/12 11:48:50;;;;;;;;;70.00;55.50;;;;;12.41;51.17;99890.03;5093528;28;9182;-77
2023/01/12 11:51:21;;;;;;;;;70.00;55.75;;;;;11.20;53.54;99898.69;5091843;28;9645;-76
2023/01/12 11:53:49;;;;;;;;;62.75;50.75;;;;;11.47;53.23;99899.63;5112063;27;9716;-81
2023/01/12 11:56:55;;;;;;;;;69.50;55.50;;;;;11.31;53.17;99897.00;5130340;27;8843;-78
2023/01/12 11:59:33;;;;;;;;;65.25;53.75;;;;;10.90;53.73;99897.72;5085672;28;8869;-79
2023/01/12 12:02:18;;;;;;;;;65.75;54.25;;;;;10.25;56.16;99911.28;5071542;28;8858;-77
2023/01/12 12:04:59;;;;;;;;;67.50;54.75;;;;;10.02;56.17;99917.22;5053264;28;8875;-79
2023/01/12 12:07:44;;;;;;;;;76.25;58.50;;;;;10.36;56.38;99908.75;5070548;28;8844;-79
2023/01/12 12:10:22;;;;;;;;;72.00;58.50;;;;;10.35;56.83;99907.91;5050883;28;9100;-80
2023/01/12 12:13:15;;;;;;;;;71.25;57.50;;;;;10.01;57.61;99909.38;5070133;28;8855;-78
2023/01/12 12:15:52;;;;;;;;;65.25;53.50;;;;;10.31;57.56;99913.97;5070487;28;9911;-77
2023/01/12 12:18:38;;;;;;;;;70.25;57.25;;;;;10.03;58.71;99905.91;5086182;28;8849;-75
2023/01/12 12:21:21;;;;;;;;;76.25;60.75;;;;;10.26;58.18;99899.97;5043844;28;8843;-79
2023/01/12 12:24:05;;;;;;;;;79.50;61.00;;;;;10.87;56.76;99892.53;4997398;28;8940;-79
2023/01/12 12:26:37;;;;;;;;;74.50;59.75;;;;;11.00;55.75;99895.16;5029545;28;8868;-78
2023/01/12 12:29:21;;;;;;;;;66.50;55.00;;;;;10.42;55.66;99909.69;5026196;28;8901;-78
2023/01/12 12:32:03;;;;;;;;;63.25;52.75;;;;;10.17;55.86;99900.81;5039807;28;8838;-78